Terminal Aerodrome Forecast
Issued by NWS

Home | Current Version | Previous Version | Text Only | Print | Product List | Glossary On
Versions: 1 2 3 4 5 6 7 8 9 10 11 12 13 14 15 16 17 18 19 20 21 22 23 24
000
FTUS45 KRIW 271100
TAFPNA
TAF
KPNA 271124Z 2712/2812 29005KT P6SM VCFG FEW004 SCT050
     FM271600 VRB05KT P6SM VCSH SCT050 BKN080
     FM272000 VRB10G16KT P6SM VCTS SCT035 BKN060CB
     FM280300 31006KT P6SM VCSH SCT035 BKN070
      AMD LTD TO CLD VIS AND WIND=

USA.gov is the U.S. government's official web portal to all federal, state and local government web resources and services.